createdAt,value
2019-04-26T00:02:02.484Z,14.22
2019-04-26T00:04:31.143Z,14.11
2019-04-26T00:06:59.585Z,13.91
2019-04-26T00:09:30.226Z,14.11
2019-04-26T00:12:02.717Z,14.01
2019-04-26T00:14:35.340Z,14.00
2019-04-26T00:17:05.315Z,14.02
2019-04-26T00:19:34.316Z,14.02
2019-04-26T00:22:03.142Z,13.92
2019-04-26T00:24:31.926Z,13.91
2019-04-26T00:27:00.282Z,13.81
2019-04-26T00:29:28.655Z,13.79
2019-04-26T00:31:57.238Z,13.82
2019-04-26T00:34:25.537Z,13.62
2019-04-26T00:36:53.871Z,13.42
2019-04-26T00:39:24.799Z,13.21
2019-04-26T00:41:52.450Z,13.09
2019-04-26T00:44:21.079Z,13.23
2019-04-26T00:46:49.483Z,13.31
2019-04-26T00:49:19.207Z,13.32
2019-04-26T00:51:48.256Z,13.19
2019-04-26T00:54:16.698Z,13.18
2019-04-26T00:56:45.268Z,13.12
2019-04-26T00:59:14.889Z,13.13
2019-04-26T01:01:45.131Z,13.16
2019-04-26T01:04:14.387Z,13.10
2019-04-26T01:06:45.940Z,12.88
2019-04-26T01:09:15.928Z,12.87
2019-04-26T01:11:44.528Z,12.85
2019-04-26T01:14:13.095Z,12.78
2019-04-26T01:16:41.479Z,12.81
2019-04-26T01:19:11.674Z,12.77
2019-04-26T01:21:43.218Z,12.74
2019-04-26T01:24:13.048Z,12.74
2019-04-26T01:26:41.522Z,12.69
2019-04-26T01:29:11.654Z,12.56
2019-04-26T01:32:04.621Z,12.51
2019-04-26T01:34:33.661Z,12.39
2019-04-26T01:37:02.688Z,12.42
2019-04-26T01:39:32.061Z,12.43
2019-04-26T01:42:11.727Z,12.55
2019-04-26T01:44:50.391Z,12.55
2019-04-26T01:47:20.779Z,12.48
2019-04-26T01:49:49.482Z,12.34
2019-04-26T01:52:17.996Z,12.04
2019-04-26T01:54:46.870Z,11.87
2019-04-26T01:57:15.561Z,11.66
2019-04-26T01:59:48.748Z,11.70
2019-04-26T02:02:18.729Z,11.52
2019-04-26T02:04:55.227Z,11.41
2019-04-26T02:07:28.683Z,11.44
2019-04-26T02:09:57.079Z,11.49
2019-04-26T02:12:25.463Z,11.64
2019-04-26T02:14:53.826Z,11.72
2019-04-26T02:17:22.969Z,11.64
2019-04-26T02:19:52.537Z,11.83
2019-04-26T02:22:25.897Z,11.87
2019-04-26T02:24:55.165Z,11.83
2019-04-26T02:27:26.159Z,11.93
2019-04-26T02:29:55.011Z,12.01
2019-04-26T02:32:23.452Z,11.99
2019-04-26T02:34:51.906Z,11.92
2019-04-26T02:37:20.280Z,11.81
2019-04-26T02:39:49.133Z,11.73
2019-04-26T02:42:34.295Z,11.54
2019-04-26T02:45:22.296Z,11.43
2019-04-26T02:48:11.085Z,11.34
2019-04-26T02:50:41.219Z,11.31
2019-04-26T02:53:35.453Z,11.29
2019-04-26T02:56:09.695Z,11.28
2019-04-26T02:58:46.899Z,11.30
2019-04-26T03:01:15.368Z,11.27
2019-04-26T03:03:43.966Z,11.30
2019-04-26T03:06:12.549Z,11.33
2019-04-26T03:08:42.646Z,11.43
2019-04-26T03:11:17.227Z,11.50
2019-04-26T03:13:56.867Z,11.58
2019-04-26T03:16:50.444Z,11.60
2019-04-26T03:19:23.570Z,11.57
2019-04-26T03:22:00.905Z,11.45
2019-04-26T03:24:36.784Z,11.46
2019-04-26T03:27:08.066Z,11.52
2019-04-26T03:29:51.859Z,11.50
2019-04-26T03:32:46.124Z,11.54
2019-04-26T03:35:36.964Z,11.58
2019-04-26T03:38:34.469Z,11.64
2019-04-26T03:41:13.653Z,11.60
2019-04-26T03:43:51.152Z,11.63
2019-04-26T03:46:34.957Z,11.65
2019-04-26T03:49:22.913Z,11.64
2019-04-26T03:52:12.517Z,11.68
2019-04-26T03:54:42.823Z,11.68
2019-04-26T03:57:22.089Z,11.66
2019-04-26T03:59:57.919Z,11.72
2019-04-26T04:02:50.853Z,11.73
2019-04-26T04:05:26.568Z,11.81
2019-04-26T04:07:56.484Z,11.82
2019-04-26T04:10:30.499Z,11.79
2019-04-26T04:13:04.488Z,11.74
2019-04-26T04:15:44.072Z,11.71
2019-04-26T04:18:17.041Z,11.76
2019-04-26T04:20:56.131Z,11.74
2019-04-26T04:23:43.520Z,11.73
2019-04-26T04:26:14.472Z,11.64
2019-04-26T04:29:03.512Z,11.54
2019-04-26T04:31:59.159Z,11.59
2019-04-26T04:34:36.454Z,11.71
2019-04-26T04:37:06.590Z,11.64
2019-04-26T04:39:48.531Z,11.68
2019-04-26T04:42:29.854Z,11.73
2019-04-26T04:45:32.637Z,11.85
2019-04-26T04:48:16.928Z,11.95
2019-04-26T04:51:04.837Z,11.98
2019-04-26T04:54:02.475Z,12.05
2019-04-26T04:56:56.668Z,12.12
2019-04-26T04:59:33.708Z,12.25
2019-04-26T05:02:12.845Z,12.37
2019-04-26T05:04:46.837Z,12.46
2019-04-26T05:07:25.927Z,12.48
2019-04-26T05:10:17.200Z,12.46
2019-04-26T05:12:54.594Z,12.38
2019-04-26T05:15:59.752Z,12.36
2019-04-26T05:18:56.623Z,12.39
2019-04-26T05:21:45.347Z,12.50
2019-04-26T05:24:22.147Z,12.63
2019-04-26T05:27:26.903Z,12.72
2019-04-26T05:30:16.670Z,12.81
2019-04-26T05:33:09.091Z,12.81
2019-04-26T05:36:05.749Z,12.79
2019-04-26T05:38:49.414Z,12.84
2019-04-26T05:41:23.459Z,12.81
2019-04-26T05:44:21.984Z,12.89
2019-04-26T05:47:03.249Z,12.89
2019-04-26T05:50:06.472Z,12.93
2019-04-26T05:53:05.167Z,12.96
2019-04-26T05:56:02.475Z,12.91
2019-04-26T05:59:04.349Z,12.83
2019-04-26T06:02:24.525Z,12.89
2019-04-26T06:05:26.112Z,12.90
2019-04-26T06:08:39.453Z,12.89
2019-04-26T06:11:15.272Z,12.87
2019-04-26T06:13:57.840Z,12.87
2019-04-26T06:16:55.302Z,12.87
2019-04-26T06:19:42.927Z,12.83
2019-04-26T06:22:32.337Z,12.76
2019-04-26T06:25:33.796Z,12.81
2019-04-26T06:28:06.143Z,12.80
2019-04-26T06:30:45.271Z,12.64
2019-04-26T06:33:16.435Z,12.57
2019-04-26T06:35:47.709Z,12.43
2019-04-26T06:39:02.148Z,12.27
2019-04-26T06:42:05.370Z,12.35
2019-04-26T06:44:41.107Z,12.21
2019-04-26T06:47:33.199Z,12.23
2019-04-26T06:50:11.889Z,12.09
2019-04-26T06:52:52.399Z,11.98
2019-04-26T06:55:23.916Z,11.92
2019-04-26T06:58:14.548Z,11.92
2019-04-26T07:00:59.804Z,11.97
2019-04-26T07:03:34.430Z,11.94
2019-04-26T07:06:06.615Z,11.86
2019-04-26T07:08:39.993Z,11.87
2019-04-26T07:11:31.266Z,11.93
2019-04-26T07:14:37.046Z,11.86
2019-04-26T07:17:12.127Z,11.84
2019-04-26T07:20:04.544Z,11.78
2019-04-26T07:23:01.991Z,11.88
2019-04-26T07:25:55.267Z,11.82
2019-04-26T07:28:48.615Z,11.83
2019-04-26T07:31:44.404Z,11.80
2019-04-26T07:34:41.411Z,11.74
2019-04-26T07:37:38.355Z,11.82
2019-04-26T07:40:29.040Z,11.86
2019-04-26T07:43:11.143Z,11.82
2019-04-26T07:46:05.869Z,11.75
2019-04-26T07:48:52.679Z,11.73
2019-04-26T07:51:40.935Z,11.72
2019-04-26T07:54:33.507Z,11.73
2019-04-26T07:57:43.331Z,11.78
2019-04-26T08:00:21.149Z,11.92
2019-04-26T08:03:24.494Z,11.92
2019-04-26T08:06:05.763Z,12.04
2019-04-26T08:08:39.830Z,12.11
2019-04-26T08:11:19.726Z,12.08
2019-04-26T08:13:56.750Z,11.99
2019-04-26T08:16:46.270Z,12.03
2019-04-26T08:19:17.801Z,12.04
2019-04-26T08:21:49.121Z,12.10
2019-04-26T08:24:21.453Z,12.05
2019-04-26T08:27:17.888Z,11.96
2019-04-26T08:29:40.411Z,12.04
2019-04-26T08:32:11.761Z,12.06
2019-04-26T08:34:43.539Z,12.05
2019-04-26T08:37:14.826Z,12.10
2019-04-26T08:39:47.613Z,12.12
2019-04-26T08:42:20.865Z,12.03
2019-04-26T08:44:51.141Z,12.13
2019-04-26T08:47:30.359Z,12.19
2019-04-26T08:50:12.181Z,12.12
2019-04-26T08:52:41.492Z,11.83
2019-04-26T08:55:10.865Z,11.57
2019-04-26T08:57:40.980Z,11.67
2019-04-26T09:00:15.462Z,11.75
2019-04-26T09:02:55.853Z,11.77
2019-04-26T09:05:49.821Z,11.86
2019-04-26T09:08:17.414Z,11.91
2019-04-26T09:10:48.006Z,11.87
2019-04-26T09:13:18.092Z,11.67
2019-04-26T09:16:07.333Z,11.54
2019-04-26T09:18:43.058Z,11.46
2019-04-26T09:21:05.949Z,11.30
2019-04-26T09:23:52.454Z,11.22
2019-04-26T09:26:42.343Z,10.97
2019-04-26T09:29:17.994Z,10.94
2019-04-26T09:31:50.377Z,10.96
2019-04-26T09:34:33.941Z,11.01
2019-04-26T09:37:02.347Z,10.71
2019-04-26T09:39:30.886Z,10.55
2019-04-26T09:42:12.958Z,10.61
2019-04-26T09:44:52.204Z,10.59
2019-04-26T09:47:24.907Z,10.68
2019-04-26T09:50:14.884Z,10.77
2019-04-26T09:52:51.589Z,10.80
2019-04-26T09:55:20.152Z,10.95
2019-04-26T09:57:48.583Z,11.06
2019-04-26T10:00:19.170Z,11.17
2019-04-26T10:02:47.484Z,11.36
2019-04-26T10:05:17.530Z,11.49
2019-04-26T10:07:46.229Z,11.51
2019-04-26T10:10:22.801Z,11.56
2019-04-26T10:13:05.828Z,11.58
2019-04-26T10:15:51.884Z,11.50
2019-04-26T10:18:24.305Z,11.24
2019-04-26T10:20:51.810Z,11.09
2019-04-26T10:23:20.354Z,11.01
2019-04-26T10:25:52.124Z,10.98
2019-04-26T10:28:19.069Z,11.02
2019-04-26T10:30:47.369Z,11.11
2019-04-26T10:33:15.952Z,11.17
2019-04-26T10:35:44.357Z,11.06
2019-04-26T10:38:12.822Z,11.15
2019-04-26T10:40:41.328Z,11.19
2019-04-26T10:43:11.459Z,11.29
2019-04-26T10:45:40.161Z,11.34
2019-04-26T10:48:09.665Z,11.33
2019-04-26T10:50:38.803Z,11.17
2019-04-26T10:53:25.554Z,11.22
2019-04-26T10:56:12.053Z,11.18
2019-04-26T10:58:42.098Z,11.02
2019-04-26T11:01:12.266Z,11.04
2019-04-26T11:03:40.645Z,10.97
2019-04-26T11:06:09.235Z,10.93
2019-04-26T11:08:37.588Z,10.92
2019-04-26T11:11:08.130Z,10.92
2019-04-26T11:13:36.776Z,11.07
2019-04-26T11:16:07.245Z,11.04
2019-04-26T11:18:35.742Z,11.10
2019-04-26T11:21:04.263Z,11.04
2019-04-26T11:23:32.784Z,10.95
2019-04-26T11:26:02.777Z,11.13
2019-04-26T11:28:31.280Z,11.26
2019-04-26T11:30:59.778Z,11.33
2019-04-26T11:33:28.216Z,11.42
2019-04-26T11:35:56.573Z,11.40
2019-04-26T11:38:27.032Z,11.47
2019-04-26T11:41:05.930Z,11.42
2019-04-26T11:43:25.698Z,11.48
2019-04-26T11:46:03.761Z,11.47
2019-04-26T11:48:25.476Z,11.50
2019-04-26T11:50:54.243Z,11.66
2019-04-26T11:53:22.588Z,11.67
2019-04-26T11:55:51.139Z,11.67
2019-04-26T11:58:22.574Z,11.61
2019-04-26T12:00:51.377Z,11.56
2019-04-26T12:03:21.208Z,11.52
2019-04-26T12:05:52.516Z,11.61
2019-04-26T12:08:22.563Z,11.75
2019-04-26T12:10:51.063Z,11.81
2019-04-26T12:13:21.298Z,11.96
2019-04-26T12:15:50.084Z,12.15
2019-04-26T12:18:18.505Z,12.33
2019-04-26T12:20:47.098Z,12.57
2019-04-26T12:23:20.514Z,12.62
2019-04-26T12:25:48.040Z,12.87
2019-04-26T12:28:15.854Z,13.15
2019-04-26T12:30:44.593Z,13.32
2019-04-26T12:33:12.979Z,13.12
2019-04-26T12:35:41.368Z,12.98
2019-04-26T12:38:09.752Z,13.12
2019-04-26T12:40:38.071Z,13.33
2019-04-26T12:43:06.471Z,13.40
2019-04-26T12:45:54.737Z,13.33
2019-04-26T12:48:24.824Z,13.33
2019-04-26T12:50:53.335Z,13.14
2019-04-26T12:53:21.683Z,13.10
2019-04-26T12:55:53.265Z,13.06
2019-04-26T12:58:20.221Z,12.76
2019-04-26T13:00:54.293Z,12.68
2019-04-26T13:03:20.484Z,12.77
2019-04-26T13:05:49.762Z,12.60
2019-04-26T13:08:19.273Z,12.55
2019-04-26T13:10:49.215Z,12.49
2019-04-26T13:13:22.382Z,12.28
2019-04-26T13:16:10.768Z,12.26
2019-04-26T13:18:41.136Z,12.23
2019-04-26T13:21:09.879Z,12.17
2019-04-26T13:23:38.461Z,12.03
2019-04-26T13:26:06.962Z,12.10
2019-04-26T13:28:35.821Z,12.07
2019-04-26T13:31:04.288Z,12.09
2019-04-26T13:33:32.595Z,12.06
2019-04-26T13:36:03.220Z,11.87
2019-04-26T13:38:31.359Z,11.68
2019-04-26T13:41:04.767Z,11.68
2019-04-26T13:43:30.147Z,11.74
2019-04-26T13:46:06.080Z,11.83
2019-04-26T13:48:39.145Z,11.87
2019-04-26T13:51:17.756Z,11.93
2019-04-26T13:53:46.119Z,11.91
2019-04-26T13:56:14.591Z,11.92
2019-04-26T13:58:42.917Z,11.86
2019-04-26T14:01:14.623Z,11.86
2019-04-26T14:03:42.878Z,11.85
2019-04-26T14:06:11.325Z,11.91
2019-04-26T14:08:39.642Z,12.00
2019-04-26T14:11:08.285Z,12.13
2019-04-26T14:13:36.695Z,12.20
2019-04-26T14:16:05.557Z,12.26
2019-04-26T14:18:34.616Z,12.43
2019-04-26T14:21:03.916Z,12.56
2019-04-26T14:23:40.158Z,12.82
2019-04-26T14:26:13.725Z,13.10
2019-04-26T14:28:42.311Z,13.29
2019-04-26T14:31:12.162Z,13.42
2019-04-26T14:33:40.879Z,13.52
2019-04-26T14:36:17.761Z,13.63
2019-04-26T14:38:41.253Z,13.73
2019-04-26T14:41:13.055Z,13.74
2019-04-26T14:43:41.487Z,13.31
2019-04-26T14:46:14.528Z,12.98
2019-04-26T14:48:44.652Z,12.81
2019-04-26T14:51:16.819Z,12.74
2019-04-26T14:53:44.073Z,12.73
2019-04-26T14:56:12.451Z,12.78
2019-04-26T14:58:42.319Z,12.75
2019-04-26T15:01:12.513Z,12.78
2019-04-26T15:03:45.563Z,12.74
2019-04-26T15:06:16.831Z,12.77
2019-04-26T15:08:48.671Z,12.79
2019-04-26T15:11:16.115Z,13.03
2019-04-26T15:13:44.511Z,13.10
2019-04-26T15:16:14.324Z,13.06
2019-04-26T15:18:42.849Z,12.94
2019-04-26T15:21:12.888Z,12.99
2019-04-26T15:23:41.302Z,13.11
2019-04-26T15:26:09.708Z,13.16
2019-04-26T15:28:38.096Z,13.20
2019-04-26T15:31:06.783Z,13.40
2019-04-26T15:33:35.990Z,13.50
2019-04-26T15:36:06.304Z,13.56
2019-04-26T15:38:41.385Z,13.55
2019-04-26T15:41:14.580Z,13.56
2019-04-26T15:43:50.207Z,13.63
2019-04-26T15:46:36.150Z,13.75
2019-04-26T15:49:12.526Z,13.90
2019-04-26T15:51:42.738Z,14.05
2019-04-26T15:54:11.008Z,14.11
2019-04-26T15:56:39.406Z,14.14
2019-04-26T15:59:08.105Z,14.06
2019-04-26T16:01:36.481Z,14.03
2019-04-26T16:04:06.583Z,13.91
2019-04-26T16:06:37.490Z,13.81
2019-04-26T16:09:08.156Z,13.71
2019-04-26T16:11:37.303Z,13.59
2019-04-26T16:14:05.691Z,13.50
2019-04-26T16:16:34.664Z,13.52
2019-04-26T16:19:03.305Z,13.44
2019-04-26T16:21:32.334Z,13.32
2019-04-26T16:24:02.668Z,13.23
2019-04-26T16:26:32.790Z,13.25
2019-04-26T16:29:06.024Z,13.21
2019-04-26T16:31:48.528Z,13.13
2019-04-26T16:34:24.592Z,13.08
2019-04-26T16:36:52.993Z,12.99
2019-04-26T16:39:23.253Z,13.02
2019-04-26T16:41:52.409Z,13.02
2019-04-26T16:44:29.382Z,12.90
2019-04-26T16:47:00.605Z,12.72
2019-04-26T16:49:23.396Z,12.68
2019-04-26T16:52:01.631Z,12.73
2019-04-26T16:54:26.543Z,12.79
2019-04-26T16:56:52.737Z,12.87
2019-04-26T16:59:24.010Z,12.90
2019-04-26T17:01:53.179Z,12.88
2019-04-26T17:04:28.639Z,12.81
2019-04-26T17:06:52.953Z,12.78
2019-04-26T17:09:23.603Z,12.78
2019-04-26T17:11:52.411Z,12.80
2019-04-26T17:14:22.439Z,12.91
2019-04-26T17:16:53.049Z,12.97
2019-04-26T17:19:22.650Z,12.98
2019-04-26T17:21:56.499Z,13.01
2019-04-26T17:24:25.537Z,13.00
2019-04-26T17:26:55.719Z,12.93
2019-04-26T17:29:24.284Z,12.87
2019-04-26T17:31:52.659Z,12.81
2019-04-26T17:34:22.548Z,12.78
2019-04-26T17:36:52.254Z,12.84
2019-04-26T17:39:22.627Z,12.92
2019-04-26T17:41:54.165Z,12.97
2019-04-26T17:44:26.425Z,12.99
2019-04-26T17:46:56.272Z,13.03
2019-04-26T17:49:27.390Z,13.06
2019-04-26T17:51:58.010Z,13.12
2019-04-26T17:54:41.784Z,13.16
2019-04-26T17:56:52.404Z,13.18
2019-04-26T17:59:32.573Z,13.19
2019-04-26T18:02:00.147Z,13.24
2019-04-26T18:04:31.972Z,13.11
2019-04-26T18:06:57.830Z,13.21
2019-04-26T18:09:40.590Z,13.23
2019-04-26T18:11:55.292Z,13.23
2019-04-26T18:14:25.573Z,13.24
2019-04-26T18:16:57.196Z,13.25
2019-04-26T18:19:34.346Z,13.22
2019-04-26T18:22:14.651Z,13.17
2019-04-26T18:24:43.239Z,13.18
2019-04-26T18:27:11.615Z,13.18
2019-04-26T18:29:40.196Z,13.18
2019-04-26T18:32:08.668Z,13.13
2019-04-26T18:34:40.444Z,13.13
2019-04-26T18:37:07.608Z,13.05
2019-04-26T18:39:36.093Z,12.98
2019-04-26T18:42:05.970Z,12.93
2019-04-26T18:44:38.616Z,12.90
2019-04-26T18:47:06.275Z,12.88
2019-04-26T18:49:34.692Z,12.83
2019-04-26T18:52:03.771Z,12.80
2019-04-26T18:54:34.633Z,12.78
2019-04-26T18:57:03.371Z,12.76
2019-04-26T18:59:31.694Z,12.73
2019-04-26T19:02:00.237Z,12.68
2019-04-26T19:04:28.562Z,12.67
2019-04-26T19:06:56.988Z,12.56
2019-04-26T19:09:26.343Z,12.54
2019-04-26T19:11:56.212Z,12.52
2019-04-26T19:14:26.739Z,12.46
2019-04-26T19:16:59.555Z,12.37
2019-04-26T19:19:31.421Z,12.29
2019-04-26T19:22:03.234Z,12.23
2019-04-26T19:24:31.952Z,12.17
2019-04-26T19:27:01.777Z,12.10
2019-04-26T19:29:34.429Z,12.11
2019-04-26T19:32:04.096Z,12.15
2019-04-26T19:34:31.362Z,12.10
2019-04-26T19:37:01.613Z,12.09
2019-04-26T19:39:33.217Z,12.06
2019-04-26T19:42:00.076Z,12.11
2019-04-26T19:44:28.617Z,12.10
2019-04-26T19:47:12.302Z,12.13
2019-04-26T19:49:45.267Z,12.13
2019-04-26T19:52:22.135Z,12.09
2019-04-26T19:54:53.058Z,12.10
2019-04-26T19:57:39.234Z,12.05
2019-04-26T20:00:09.391Z,12.06
2019-04-26T20:02:39.461Z,12.02
2019-04-26T20:05:08.001Z,12.00
2019-04-26T20:07:36.386Z,12.02
2019-04-26T20:10:05.643Z,11.87
2019-04-26T20:12:37.963Z,11.90
2019-04-26T20:15:06.531Z,11.89
2019-04-26T20:17:34.911Z,11.84
2019-04-26T20:20:16.514Z,11.76
2019-04-26T20:22:34.463Z,11.77
2019-04-26T20:25:03.780Z,11.72
2019-04-26T20:27:32.459Z,11.68
2019-04-26T20:30:02.399Z,11.69
2019-04-26T20:32:32.497Z,11.64
2019-04-26T20:35:19.876Z,11.65
2019-04-26T20:37:47.480Z,11.63
2019-04-26T20:40:21.718Z,11.61
2019-04-26T20:42:46.210Z,11.62
2019-04-26T20:45:16.977Z,11.65
2019-04-26T20:47:46.735Z,11.66
2019-04-26T20:50:15.126Z,11.61
2019-04-26T20:52:45.332Z,11.65
2019-04-26T20:55:13.950Z,11.59
2019-04-26T20:57:44.602Z,11.58
2019-04-26T21:00:13.110Z,11.58
2019-04-26T21:02:41.434Z,11.62
2019-04-26T21:05:11.424Z,11.67
2019-04-26T21:07:41.706Z,11.71
2019-04-26T21:10:14.956Z,11.65
2019-04-26T21:12:41.875Z,11.62
2019-04-26T21:15:11.627Z,11.64
2019-04-26T21:17:41.525Z,11.61
2019-04-26T21:20:10.006Z,11.59
2019-04-26T21:22:38.427Z,11.58
2019-04-26T21:25:22.193Z,11.49
2019-04-26T21:27:52.134Z,11.50
2019-04-26T21:30:29.499Z,11.50
2019-04-26T21:32:59.607Z,11.50
2019-04-26T21:38:33.906Z,11.40
2019-04-26T21:41:14.064Z,11.44
2019-04-26T21:43:43.836Z,11.41
2019-04-26T21:46:18.675Z,11.41
2019-04-26T21:48:44.535Z,11.27
2019-04-26T21:51:15.949Z,11.41
2019-04-26T21:53:45.165Z,11.48
2019-04-26T21:56:14.756Z,11.49
2019-04-26T21:58:43.580Z,11.52
2019-04-26T22:01:18.947Z,11.48
2019-04-26T22:03:53.555Z,11.41
2019-04-26T22:06:19.780Z,11.40
2019-04-26T22:08:48.640Z,11.42
2019-04-26T22:11:20.034Z,11.41
2019-04-26T22:14:03.679Z,11.43
2019-04-26T22:16:35.975Z,11.34
2019-04-26T22:19:05.791Z,11.30
2019-04-26T22:21:52.764Z,11.35
2019-04-26T22:24:23.381Z,11.33
2019-04-26T22:26:53.223Z,11.31
2019-04-26T22:29:22.984Z,11.29
2019-04-26T22:31:54.584Z,11.20
2019-04-26T22:34:23.567Z,11.14
2019-04-26T22:36:53.622Z,11.12
2019-04-26T22:39:23.197Z,11.12
2019-04-26T22:41:53.423Z,11.10
2019-04-26T22:44:26.421Z,11.20
2019-04-26T22:47:10.478Z,11.28
2019-04-26T22:49:41.669Z,11.29
2019-04-26T22:52:11.285Z,11.32
2019-04-26T22:54:42.799Z,11.31
2019-04-26T22:57:13.198Z,11.37
2019-04-26T22:59:43.244Z,11.30
2019-04-26T23:02:13.533Z,11.30
2019-04-26T23:04:41.627Z,11.33
2019-04-26T23:07:10.869Z,11.36
2019-04-26T23:09:39.558Z,11.35
2019-04-26T23:12:25.142Z,11.39
2019-04-26T23:14:59.313Z,11.42
2019-04-26T23:17:31.329Z,11.40
2019-04-26T23:20:02.937Z,11.36
2019-04-26T23:22:33.662Z,11.38
2019-04-26T23:25:03.495Z,11.29
2019-04-26T23:27:33.342Z,11.21
2019-04-26T23:30:03.761Z,11.20
2019-04-26T23:32:33.799Z,11.25
2019-04-26T23:35:05.178Z,11.25
2019-04-26T23:37:32.433Z,11.26
2019-04-26T23:40:00.934Z,11.25
2019-04-26T23:42:29.406Z,11.29
2019-04-26T23:44:57.701Z,11.26
2019-04-26T23:47:26.015Z,11.27
2019-04-26T23:49:56.921Z,11.27
2019-04-26T23:52:24.621Z,11.24
2019-04-26T23:54:53.075Z,11.26
2019-04-26T23:57:21.600Z,11.25
2019-04-26T23:59:51.019Z,11.30
